createdAt,value
2019-03-23T00:01:26.404Z,23.93
2019-03-23T00:03:54.959Z,22.03
2019-03-23T00:06:30.854Z,24.07
2019-03-23T00:08:53.790Z,22.27
2019-03-23T00:11:22.394Z,23.30
2019-03-23T00:13:50.944Z,23.10
2019-03-23T00:16:19.498Z,22.43
2019-03-23T00:18:48.067Z,23.70
2019-03-23T00:21:16.621Z,23.27
2019-03-23T00:23:45.185Z,22.87
2019-03-23T00:26:14.059Z,22.60
2019-03-23T00:28:42.622Z,22.67
2019-03-23T00:31:11.247Z,24.27
2019-03-23T00:33:39.816Z,23.90
2019-03-23T00:36:08.363Z,24.40
2019-03-23T00:38:36.864Z,23.17
2019-03-23T00:41:05.419Z,22.57
2019-03-23T00:43:34.180Z,22.90
2019-03-23T00:46:02.730Z,22.37
2019-03-23T00:48:31.283Z,19.20
2019-03-23T00:50:59.854Z,24.17
2019-03-23T00:53:28.791Z,21.87
2019-03-23T00:55:57.407Z,23.67
2019-03-23T00:58:25.955Z,22.77
2019-03-23T01:00:54.600Z,23.80
2019-03-23T01:03:23.155Z,19.80
2019-03-23T01:05:51.749Z,23.43
2019-03-23T01:08:20.312Z,22.20
2019-03-23T01:10:48.887Z,22.47
2019-03-23T01:13:17.469Z,23.37
2019-03-23T01:15:48.092Z,23.13
2019-03-23T01:18:16.259Z,23.33
2019-03-23T01:20:49.537Z,25.03
2019-03-23T01:23:15.054Z,24.60
2019-03-23T01:25:43.580Z,25.13
2019-03-23T01:28:12.147Z,25.67
2019-03-23T01:30:40.626Z,24.93
2019-03-23T01:33:09.534Z,25.00
2019-03-23T01:35:38.412Z,23.97
2019-03-23T01:38:06.995Z,23.40
2019-03-23T01:40:36.426Z,23.33
2019-03-23T01:43:05.029Z,25.90
2019-03-23T01:45:33.511Z,24.17
2019-03-23T01:48:02.091Z,24.27
2019-03-23T01:50:30.669Z,24.53
2019-03-23T01:52:59.238Z,24.20
2019-03-23T01:55:27.798Z,24.50
2019-03-23T01:57:56.387Z,17.40
2019-03-23T02:00:25.244Z,21.97
2019-03-23T02:02:53.795Z,22.57
2019-03-23T02:05:22.368Z,23.23
2019-03-23T02:07:50.919Z,24.53
2019-03-23T02:10:19.496Z,21.60
2019-03-23T02:12:48.046Z,20.63
2019-03-23T02:15:16.791Z,24.60
2019-03-23T02:17:45.344Z,23.53
2019-03-23T02:20:14.754Z,24.50
2019-03-23T02:22:43.422Z,23.97
2019-03-23T02:25:12.376Z,21.10
2019-03-23T02:27:40.919Z,25.43
2019-03-23T02:30:11.318Z,25.27
2019-03-23T02:32:39.857Z,22.37
2019-03-23T02:35:08.948Z,25.07
2019-03-23T02:37:37.516Z,22.93
2019-03-23T02:40:07.713Z,23.63
2019-03-23T02:42:36.353Z,20.43
2019-03-23T02:45:09.651Z,24.57
2019-03-23T02:47:38.230Z,27.50
2019-03-23T02:50:08.916Z,23.93
2019-03-23T02:52:38.086Z,24.53
2019-03-23T02:55:08.458Z,24.43
2019-03-23T02:57:36.960Z,25.53
2019-03-23T03:00:14.213Z,23.77
2019-03-23T03:02:42.799Z,24.40
2019-03-23T03:05:11.763Z,24.53
2019-03-23T03:07:43.266Z,24.87
2019-03-23T03:10:12.469Z,23.43
2019-03-23T03:12:41.016Z,25.10
2019-03-23T03:15:10.327Z,25.00
2019-03-23T03:17:39.314Z,24.20
2019-03-23T03:20:09.321Z,24.80
2019-03-23T03:22:37.893Z,25.90
2019-03-23T03:25:08.088Z,26.03
2019-03-23T03:27:36.706Z,24.47
2019-03-23T03:30:10.725Z,25.13
2019-03-23T03:32:39.280Z,26.10
2019-03-23T03:35:08.994Z,26.97
2019-03-23T03:37:37.564Z,26.23
2019-03-23T03:40:07.361Z,26.17
2019-03-23T03:42:35.949Z,26.13
2019-03-23T03:45:07.399Z,25.43
2019-03-23T03:47:35.996Z,24.87
2019-03-23T03:50:07.852Z,25.90
2019-03-23T03:52:36.431Z,25.13
2019-03-23T03:55:07.116Z,25.57
2019-03-23T03:57:35.712Z,28.23
2019-03-23T04:00:09.447Z,25.97
2019-03-23T04:02:38.573Z,25.10
2019-03-23T04:05:08.447Z,26.87
2019-03-23T04:07:37.003Z,26.70
2019-03-23T04:10:08.127Z,27.57
2019-03-23T04:12:36.693Z,26.07
2019-03-23T04:15:08.108Z,26.47
2019-03-23T04:17:36.727Z,23.27
2019-03-23T04:20:08.025Z,19.63
2019-03-23T04:22:36.601Z,22.33
2019-03-23T04:25:10.281Z,23.07
2019-03-23T04:27:38.941Z,22.13
2019-03-23T04:30:10.197Z,23.73
2019-03-23T04:32:38.813Z,23.67
2019-03-23T04:35:08.428Z,24.53
2019-03-23T04:37:37.355Z,20.90
2019-03-23T04:40:09.045Z,23.20
2019-03-23T04:42:37.620Z,24.10
2019-03-23T04:45:08.507Z,24.47
2019-03-23T04:47:37.087Z,25.67
2019-03-23T04:50:08.570Z,25.57
2019-03-23T04:52:37.138Z,24.87
2019-03-23T04:55:08.807Z,26.77
2019-03-23T04:57:37.647Z,24.57
2019-03-23T05:00:09.438Z,25.00
2019-03-23T05:02:38.011Z,24.53
2019-03-23T05:05:06.904Z,24.33
2019-03-23T05:07:35.474Z,25.90
2019-03-23T05:10:05.503Z,25.03
2019-03-23T05:12:34.093Z,29.47
2019-03-23T05:15:02.650Z,53.27
2019-03-23T05:17:31.198Z,52.97
2019-03-23T05:19:59.787Z,50.93
2019-03-23T05:22:28.403Z,69.73
2019-03-23T05:24:56.979Z,101.37
2019-03-23T05:27:25.529Z,74.67
2019-03-23T05:29:54.170Z,61.03
2019-03-23T05:32:22.845Z,67.00
2019-03-23T05:34:51.431Z,62.17
2019-03-23T05:37:19.983Z,67.77
2019-03-23T05:39:48.949Z,67.33
2019-03-23T05:42:17.503Z,73.43
2019-03-23T05:44:46.096Z,69.37
2019-03-23T05:47:14.652Z,40.70
2019-03-23T05:49:43.234Z,34.30
2019-03-23T05:52:11.958Z,38.30
2019-03-23T05:54:40.531Z,35.30
2019-03-23T05:57:09.147Z,28.90
2019-03-23T05:59:37.773Z,27.17
2019-03-23T06:02:06.442Z,26.33
2019-03-23T06:04:35.276Z,27.27
2019-03-23T06:07:03.920Z,26.10
2019-03-23T06:09:32.462Z,25.83
2019-03-23T06:12:01.213Z,25.57
2019-03-23T06:14:29.765Z,24.73
2019-03-23T06:16:58.419Z,23.13
2019-03-23T06:19:26.979Z,24.03
2019-03-23T06:21:55.555Z,24.27
2019-03-23T06:24:24.117Z,23.43
2019-03-23T06:26:52.711Z,23.40
2019-03-23T06:29:21.377Z,23.17
2019-03-23T06:31:49.928Z,23.37
2019-03-23T06:34:18.499Z,23.73
2019-03-23T06:36:47.052Z,25.33
2019-03-23T06:39:15.623Z,31.57
2019-03-23T06:41:44.195Z,28.33
2019-03-23T06:44:12.788Z,27.80
2019-03-23T06:46:41.339Z,26.53
2019-03-23T06:49:10.222Z,29.57
2019-03-23T06:51:38.776Z,28.33
2019-03-23T06:54:07.347Z,24.10
2019-03-23T06:56:35.903Z,27.43
2019-03-23T06:59:04.571Z,28.33
2019-03-23T07:01:33.127Z,23.27
2019-03-23T07:04:01.686Z,23.63
2019-03-23T07:06:30.267Z,22.17
2019-03-23T07:08:59.281Z,20.93
2019-03-23T07:11:27.866Z,21.00
2019-03-23T07:13:56.426Z,20.97
2019-03-23T07:16:25.036Z,21.03
2019-03-23T07:18:53.591Z,21.50
2019-03-23T07:21:22.271Z,20.77
2019-03-23T07:23:50.842Z,20.70
2019-03-23T07:26:19.416Z,20.57
2019-03-23T07:28:47.990Z,20.77
2019-03-23T07:31:16.593Z,19.23
2019-03-23T07:33:45.223Z,19.50
2019-03-23T07:36:13.783Z,19.93
2019-03-23T07:38:42.459Z,19.13
2019-03-23T07:41:11.031Z,22.23
2019-03-23T07:43:39.620Z,20.40
2019-03-23T07:46:08.180Z,20.90
2019-03-23T07:48:36.758Z,20.67
2019-03-23T07:51:05.331Z,20.00
2019-03-23T07:53:33.919Z,21.80
2019-03-23T07:56:02.500Z,20.57
2019-03-23T07:58:31.155Z,21.27
2019-03-23T08:00:59.783Z,20.10
2019-03-23T08:03:28.379Z,21.57
2019-03-23T08:05:56.947Z,20.80
2019-03-23T08:08:25.519Z,20.32
2019-03-23T08:10:54.164Z,21.17
2019-03-23T08:13:22.848Z,150.75
2019-03-23T08:15:51.599Z,76.40
2019-03-23T08:18:20.148Z,51.30
2019-03-23T08:20:48.731Z,20.37
2019-03-23T08:23:17.290Z,20.12
2019-03-23T08:25:45.905Z,21.70
2019-03-23T08:28:14.465Z,23.47
2019-03-23T08:30:43.101Z,22.25
2019-03-23T08:33:12.117Z,23.05
2019-03-23T08:35:40.669Z,24.32
2019-03-23T08:38:09.241Z,25.48
2019-03-23T08:40:37.968Z,25.30
2019-03-23T08:43:06.530Z,23.25
2019-03-23T08:45:35.121Z,26.62
2019-03-23T08:48:03.755Z,30.90
2019-03-23T08:50:32.399Z,72.05
2019-03-23T08:53:00.994Z,24.25
2019-03-23T08:55:29.551Z,21.70
2019-03-23T08:57:58.507Z,21.35
2019-03-23T09:00:27.067Z,22.98
2019-03-23T09:02:55.711Z,28.83
2019-03-23T09:05:24.312Z,25.25
2019-03-23T09:07:52.900Z,24.95
2019-03-23T09:10:21.459Z,21.90
2019-03-23T09:12:50.048Z,23.05
2019-03-23T09:15:18.604Z,23.45
2019-03-23T09:17:47.159Z,21.70
2019-03-23T09:20:15.876Z,24.05
2019-03-23T09:22:44.455Z,23.83
2019-03-23T09:25:13.108Z,24.67
2019-03-23T09:27:41.663Z,24.52
2019-03-23T09:30:13.607Z,22.20
2019-03-23T09:32:42.298Z,25.25
2019-03-23T09:35:10.962Z,23.10
2019-03-23T09:37:39.460Z,25.35
2019-03-23T09:40:10.957Z,23.40
2019-03-23T09:42:39.695Z,24.25
2019-03-23T09:45:09.026Z,23.87
2019-03-23T09:47:37.794Z,41.98
2019-03-23T09:50:09.090Z,127.53
2019-03-23T09:52:37.741Z,136.22
2019-03-23T09:55:09.472Z,25.50
